ACA316 CYVR-CYUL
Flight info
| Callsign | ACA316 |
|---|---|
| Flight time | N/A |
| Altitude | 33000 |
| Route | ALNOD DCT IKNIX DCT 5030N11500W 5130N11000W DCT MUTUR DCT XOVON/N0461F350 DCT 49N090W DCT BESEL DCT BEMOG LFLER7 |
| Aircraft | B38M/M-SDE2E3FGHIRWXY/LB1 |
Departure
| Time | 2026-05-01 15:04 |
|---|---|
| Airport | Vancouver International Airport (CYVR) |
Arrival
| Time | N/A |
|---|---|
| Airport | Montreal / Pierre Elliott Trudeau International Airport (CYUL) |
| Time | Latitude | Longitude | Altitude | Speed | Heading |
|---|---|---|---|---|---|
| 2026-05-01 14:49 | 49.19608 | -123.18605 | 26 ft | 0 kts | 107° |
| 2026-05-01 14:51 | 49.19610 | -123.18615 | 26 ft | 2 kts | 107° |
| 2026-05-01 14:51 | 49.19619 | -123.18660 | 26 ft | 2 kts | 110° |
| 2026-05-01 14:52 | 49.19642 | -123.18688 | 26 ft | 2 kts | 173° |
| 2026-05-01 14:52 | 49.19651 | -123.18689 | 26 ft | 1 kts | 189° |
| 2026-05-01 14:52 | 49.19657 | -123.18686 | 26 ft | 0 kts | 191° |
| 2026-05-01 14:58 | 49.19630 | -123.18694 | 26 ft | 12 kts | 191° |
| 2026-05-01 14:59 | 49.19536 | -123.18718 | 26 ft | 15 kts | 189° |
| 2026-05-01 14:59 | 49.19431 | -123.18746 | 26 ft | 16 kts | 195° |
| 2026-05-01 14:59 | 49.19374 | -123.18891 | 26 ft | 18 kts | 259° |
| 2026-05-01 14:59 | 49.19351 | -123.19086 | 26 ft | 19 kts | 261° |
| 2026-05-01 15:00 | 49.19300 | -123.19524 | 26 ft | 22 kts | 261° |
| 2026-05-01 15:00 | 49.19273 | -123.19763 | 28 ft | 23 kts | 256° |
| 2026-05-01 15:00 | 49.19232 | -123.20006 | 29 ft | 24 kts | 259° |
| 2026-05-01 15:01 | 49.19204 | -123.20261 | 30 ft | 25 kts | 261° |
| 2026-05-01 15:01 | 49.19165 | -123.20433 | 31 ft | 10 kts | 192° |
| 2026-05-01 15:01 | 49.19102 | -123.20440 | 31 ft | 8 kts | 184° |
| 2026-05-01 15:01 | 49.19087 | -123.20442 | 31 ft | 0 kts | 187° |
| 2026-05-01 15:02 | 49.19065 | -123.20447 | 31 ft | 10 kts | 189° |
| 2026-05-01 15:02 | 49.18996 | -123.20462 | 31 ft | 15 kts | 177° |
| 2026-05-01 15:02 | 49.18970 | -123.20428 | 32 ft | 0 kts | 98° |
| 2026-05-01 15:03 | 49.18966 | -123.20377 | 32 ft | 28 kts | 97° |
| 2026-05-01 15:03 | 49.18888 | -123.19653 | 28 ft | 108 kts | 99° |
| 2026-05-01 15:03 | 49.18723 | -123.18187 | 29 ft | 171 kts | 99° |
| 2026-05-01 15:03 | 49.18477 | -123.16255 | 508 ft | 190 kts | 101° |
| 2026-05-01 15:04 | 49.18227 | -123.14467 | 1702 ft | 171 kts | 102° |
| 2026-05-01 15:04 | 49.17957 | -123.12614 | 2119 ft | 187 kts | 102° |
| 2026-05-01 15:04 | 49.17694 | -123.10695 | 2788 ft | 189 kts | 101° |
| 2026-05-01 15:04 | 49.17466 | -123.08586 | 3127 ft | 209 kts | 95° |
| 2026-05-01 15:05 | 49.17392 | -123.06316 | 3592 ft | 223 kts | 93° |
| 2026-05-01 15:05 | 49.17200 | -123.03906 | 4070 ft | 236 kts | 101° |
| 2026-05-01 15:05 | 49.16839 | -123.01429 | 4633 ft | 244 kts | 103° |
| 2026-05-01 15:05 | 49.16462 | -122.98893 | 5261 ft | 249 kts | 103° |
| 2026-05-01 15:06 | 49.16107 | -122.96290 | 5869 ft | 254 kts | 102° |
| 2026-05-01 15:06 | 49.15768 | -122.93653 | 6530 ft | 258 kts | 102° |
| 2026-05-01 15:06 | 49.15420 | -122.90904 | 7166 ft | 267 kts | 102° |
| 2026-05-01 15:06 | 49.15068 | -122.88124 | 7894 ft | 272 kts | 102° |
| 2026-05-01 15:07 | 49.14700 | -122.85233 | 8448 ft | 283 kts | 102° |
| 2026-05-01 15:07 | 49.14324 | -122.82281 | 9192 ft | 287 kts | 102° |
| 2026-05-01 15:07 | 49.13940 | -122.79284 | 9952 ft | 291 kts | 102° |
| 2026-05-01 15:07 | 49.13547 | -122.76230 | 10574 ft | 301 kts | 102° |
| 2026-05-01 15:08 | 49.13133 | -122.73029 | 10923 ft | 316 kts | 102° |
| 2026-05-01 15:08 | 49.12694 | -122.69646 | 11311 ft | 332 kts | 102° |
| 2026-05-01 15:08 | 49.12236 | -122.66113 | 11739 ft | 344 kts | 103° |
| 2026-05-01 15:08 | 49.11765 | -122.62485 | 12373 ft | 351 kts | 103° |
| 2026-05-01 15:09 | 49.11288 | -122.58815 | 13042 ft | 356 kts | 103° |
| 2026-05-01 15:09 | 49.10802 | -122.55085 | 13728 ft | 361 kts | 103° |
| 2026-05-01 15:09 | 49.10310 | -122.51317 | 14414 ft | 365 kts | 103° |
| 2026-05-01 15:09 | 49.09813 | -122.47522 | 15089 ft | 369 kts | 103° |
| 2026-05-01 15:10 | 49.09303 | -122.43644 | 15745 ft | 373 kts | 103° |
| 2026-05-01 15:10 | 49.08614 | -122.38430 | 16593 ft | 378 kts | 103° |
| 2026-05-01 15:10 | 49.08089 | -122.34474 | 17207 ft | 381 kts | 104° |
| 2026-05-01 15:11 | 49.07555 | -122.30452 | 17807 ft | 385 kts | 104° |
| 2026-05-01 15:11 | 49.06473 | -122.22356 | 18940 ft | 393 kts | 104° |
| 2026-05-01 15:11 | 49.05928 | -122.18281 | 19506 ft | 395 kts | 104° |
| 2026-05-01 15:12 | 49.05375 | -122.14159 | 20064 ft | 398 kts | 104° |
| 2026-05-01 15:12 | 49.04256 | -122.05872 | 21153 ft | 404 kts | 104° |
| 2026-05-01 15:12 | 49.03687 | -122.01679 | 21680 ft | 407 kts | 104° |
| 2026-05-01 15:13 | 49.01942 | -121.88875 | 23187 ft | 416 kts | 105° |
| 2026-05-01 15:14 | 49.00743 | -121.80159 | 23718 ft | 433 kts | 104° |
| 2026-05-01 15:14 | 49.00115 | -121.75628 | 23867 ft | 444 kts | 104° |
| 2026-05-01 15:14 | 48.98817 | -121.66289 | 24609 ft | 455 kts | 104° |
| 2026-05-01 15:15 | 48.97496 | -121.56804 | 25503 ft | 462 kts | 104° |
| 2026-05-01 15:15 | 48.96432 | -121.47129 | 26397 ft | 468 kts | 97° |
| 2026-05-01 15:16 | 48.95976 | -121.37180 | 27150 ft | 477 kts | 94° |
| 2026-05-01 15:16 | 48.95722 | -121.26834 | 27762 ft | 487 kts | 94° |
| 2026-05-01 15:17 | 48.95490 | -121.16478 | 28479 ft | 493 kts | 94° |
| 2026-05-01 15:18 | 48.95074 | -121.00662 | 29547 ft | 501 kts | 94° |
| 2026-05-01 15:18 | 48.94919 | -120.95350 | 29995 ft | 501 kts | 94° |
| 2026-05-01 15:19 | 48.94428 | -120.79575 | 31559 ft | 494 kts | 94° |
| 2026-05-01 15:19 | 48.94087 | -120.69212 | 32465 ft | 491 kts | 94° |
| 2026-05-01 15:19 | 48.93914 | -120.64067 | 32922 ft | 489 kts | 94° |
| 2026-05-01 15:20 | 48.93561 | -120.53794 | 33719 ft | 487 kts | 94° |
| 2026-05-01 15:20 | 48.93380 | -120.48636 | 34059 ft | 486 kts | 94° |
| 2026-05-01 15:20 | 48.93198 | -120.43532 | 34505 ft | 482 kts | 94° |
| 2026-05-01 15:21 | 48.93015 | -120.38478 | 34900 ft | 480 kts | 94° |
| 2026-05-01 15:21 | 48.92829 | -120.33381 | 35145 ft | 481 kts | 94° |
| 2026-05-01 15:21 | 48.92638 | -120.28232 | 35151 ft | 484 kts | 94° |
| 2026-05-01 15:22 | 48.92062 | -120.12965 | 35148 ft | 482 kts | 94° |
| 2026-05-01 15:22 | 48.91675 | -120.02813 | 35142 ft | 482 kts | 93° |
| 2026-05-01 15:23 | 48.91552 | -119.92645 | 35153 ft | 480 kts | 90° |
| 2026-05-01 15:23 | 48.91618 | -119.82461 | 35165 ft | 480 kts | 89° |
| 2026-05-01 15:24 | 48.91686 | -119.72249 | 35165 ft | 480 kts | 90° |
| 2026-05-01 15:24 | 48.91949 | -119.62167 | 35163 ft | 480 kts | 83° |
| 2026-05-01 15:25 | 48.92921 | -119.52113 | 35151 ft | 481 kts | 80° |
| 2026-05-01 15:25 | 48.94054 | -119.42105 | 35146 ft | 479 kts | 79° |
| 2026-05-01 15:26 | 48.95219 | -119.32007 | 35149 ft | 480 kts | 80° |
| 2026-05-01 15:26 | 48.96413 | -119.21870 | 35143 ft | 480 kts | 77° |
| 2026-05-01 15:27 | 48.97560 | -119.17124 | 35151 ft | 477 kts | 60° |
| 2026-05-01 15:27 | 48.99228 | -119.12772 | 35145 ft | 479 kts | 57° |
| 2026-05-01 15:28 | 49.04388 | -118.99809 | 35135 ft | 477 kts | 57° |
| 2026-05-01 15:28 | 49.07792 | -118.91196 | 35138 ft | 477 kts | 57° |
| 2026-05-01 15:29 | 49.12874 | -118.78218 | 35139 ft | 476 kts | 57° |
| 2026-05-01 15:30 | 49.19494 | -118.61176 | 35136 ft | 475 kts | 57° |
| 2026-05-01 15:31 | 49.29566 | -118.35021 | 35141 ft | 475 kts | 57° |
| 2026-05-01 15:32 | 49.36421 | -118.17069 | 35148 ft | 474 kts | 58° |
| 2026-05-01 15:34 | 49.46383 | -117.90764 | 35155 ft | 475 kts | 58° |